sensor_id;sensor_type;location;lat;lon;timestamp;P1;durP1;ratioP1;P2;durP2;ratioP2
79139;SDS011;68546;59.142;37.948;2023-04-25T00:01:37;6.13;;;2.80;;
79139;SDS011;68546;59.142;37.948;2023-04-25T00:04:04;6.93;;;2.67;;
79139;SDS011;68546;59.142;37.948;2023-04-25T00:06:36;8.53;;;2.73;;
79139;SDS011;68546;59.142;37.948;2023-04-25T00:09:04;5.50;;;2.72;;
79139;SDS011;68546;59.142;37.948;2023-04-25T00:11:33;8.13;;;2.75;;
79139;SDS011;68546;59.142;37.948;2023-04-25T00:14:00;7.50;;;2.80;;
79139;SDS011;68546;59.142;37.948;2023-04-25T00:16:28;6.18;;;2.22;;
79139;SDS011;68546;59.142;37.948;2023-04-25T00:18:59;8.37;;;2.90;;
79139;SDS011;68546;59.142;37.948;2023-04-25T00:21:25;6.80;;;3.00;;
79139;SDS011;68546;59.142;37.948;2023-04-25T00:23:52;7.28;;;2.80;;
79139;SDS011;68546;59.142;37.948;2023-04-25T00:26:19;5.97;;;2.35;;
79139;SDS011;68546;59.142;37.948;2023-04-25T00:28:47;6.88;;;2.55;;
79139;SDS011;68546;59.142;37.948;2023-04-25T00:31:14;10.37;;;2.93;;
79139;SDS011;68546;59.142;37.948;2023-04-25T00:33:41;6.45;;;2.92;;
79139;SDS011;68546;59.142;37.948;2023-04-25T00:36:07;7.40;;;3.00;;
79139;SDS011;68546;59.142;37.948;2023-04-25T00:38:34;7.63;;;3.00;;
79139;SDS011;68546;59.142;37.948;2023-04-25T00:41:01;5.68;;;2.38;;
79139;SDS011;68546;59.142;37.948;2023-04-25T00:43:28;7.10;;;3.20;;
79139;SDS011;68546;59.142;37.948;2023-04-25T00:45:58;5.80;;;2.70;;
79139;SDS011;68546;59.142;37.948;2023-04-25T00:48:26;6.78;;;2.60;;
79139;SDS011;68546;59.142;37.948;2023-04-25T00:50:54;6.38;;;2.50;;
79139;SDS011;68546;59.142;37.948;2023-04-25T00:53:23;8.27;;;2.30;;
79139;SDS011;68546;59.142;37.948;2023-04-25T00:55:52;7.60;;;2.60;;
79139;SDS011;68546;59.142;37.948;2023-04-25T00:58:20;6.60;;;2.75;;
79139;SDS011;68546;59.142;37.948;2023-04-25T01:00:48;6.05;;;2.50;;
79139;SDS011;68546;59.142;37.948;2023-04-25T01:03:16;7.55;;;2.83;;
79139;SDS011;68546;59.142;37.948;2023-04-25T01:05:51;6.32;;;2.30;;
79139;SDS011;68546;59.142;37.948;2023-04-25T01:08:17;5.37;;;2.33;;
79139;SDS011;68546;59.142;37.948;2023-04-25T01:10:44;5.95;;;2.53;;
79139;SDS011;68546;59.142;37.948;2023-04-25T01:13:10;8.90;;;2.83;;
79139;SDS011;68546;59.142;37.948;2023-04-25T01:15:37;6.15;;;2.67;;
79139;SDS011;68546;59.142;37.948;2023-04-25T01:18:05;6.25;;;3.08;;
79139;SDS011;68546;59.142;37.948;2023-04-25T01:20:32;6.13;;;2.70;;
79139;SDS011;68546;59.142;37.948;2023-04-25T01:22:59;9.20;;;3.05;;
79139;SDS011;68546;59.142;37.948;2023-04-25T01:25:29;5.88;;;2.38;;
79139;SDS011;68546;59.142;37.948;2023-04-25T01:27:57;7.80;;;2.53;;
79139;SDS011;68546;59.142;37.948;2023-04-25T01:30:27;6.22;;;2.58;;
79139;SDS011;68546;59.142;37.948;2023-04-25T01:32:55;6.77;;;2.90;;
79139;SDS011;68546;59.142;37.948;2023-04-25T01:35:22;6.38;;;2.38;;
79139;SDS011;68546;59.142;37.948;2023-04-25T01:37:53;7.03;;;2.40;;
79139;SDS011;68546;59.142;37.948;2023-04-25T01:40:20;6.35;;;2.65;;
79139;SDS011;68546;59.142;37.948;2023-04-25T01:42:48;5.35;;;2.28;;
79139;SDS011;68546;59.142;37.948;2023-04-25T01:45:14;5.10;;;2.20;;
79139;SDS011;68546;59.142;37.948;2023-04-25T01:47:41;6.53;;;2.60;;
79139;SDS011;68546;59.142;37.948;2023-04-25T01:50:13;6.18;;;2.95;;
79139;SDS011;68546;59.142;37.948;2023-04-25T01:52:39;6.45;;;2.50;;
79139;SDS011;68546;59.142;37.948;2023-04-25T01:55:07;5.97;;;2.60;;
79139;SDS011;68546;59.142;37.948;2023-04-25T01:57:36;6.33;;;2.70;;
79139;SDS011;68546;59.142;37.948;2023-04-25T02:00:04;7.93;;;2.97;;
79139;SDS011;68546;59.142;37.948;2023-04-25T02:02:38;6.63;;;2.92;;
79139;SDS011;68546;59.142;37.948;2023-04-25T02:05:08;6.85;;;3.13;;
79139;SDS011;68546;59.142;37.948;2023-04-25T02:07:37;6.18;;;2.60;;
79139;SDS011;68546;59.142;37.948;2023-04-25T02:10:04;7.17;;;2.53;;
79139;SDS011;68546;59.142;37.948;2023-04-25T02:12:38;5.70;;;2.38;;
79139;SDS011;68546;59.142;37.948;2023-04-25T02:15:19;6.05;;;2.53;;
79139;SDS011;68546;59.142;37.948;2023-04-25T02:17:55;6.38;;;2.45;;
79139;SDS011;68546;59.142;37.948;2023-04-25T02:20:22;6.82;;;2.58;;
79139;SDS011;68546;59.142;37.948;2023-04-25T02:22:49;7.87;;;2.87;;
79139;SDS011;68546;59.142;37.948;2023-04-25T02:25:16;6.05;;;2.80;;
79139;SDS011;68546;59.142;37.948;2023-04-25T02:27:46;6.07;;;2.67;;
79139;SDS011;68546;59.142;37.948;2023-04-25T02:30:13;6.05;;;2.80;;
79139;SDS011;68546;59.142;37.948;2023-04-25T02:32:40;6.35;;;2.92;;
79139;SDS011;68546;59.142;37.948;2023-04-25T02:35:08;8.93;;;3.23;;
79139;SDS011;68546;59.142;37.948;2023-04-25T02:37:36;7.13;;;3.10;;
79139;SDS011;68546;59.142;37.948;2023-04-25T02:40:03;7.15;;;3.17;;
79139;SDS011;68546;59.142;37.948;2023-04-25T02:42:31;9.75;;;3.40;;
79139;SDS011;68546;59.142;37.948;2023-04-25T02:44:57;7.57;;;3.40;;
79139;SDS011;68546;59.142;37.948;2023-04-25T02:47:24;10.63;;;3.00;;
79139;SDS011;68546;59.142;37.948;2023-04-25T02:49:50;6.25;;;2.78;;
79139;SDS011;68546;59.142;37.948;2023-04-25T02:52:17;7.28;;;3.10;;
79139;SDS011;68546;59.142;37.948;2023-04-25T02:54:47;8.00;;;2.95;;
79139;SDS011;68546;59.142;37.948;2023-04-25T02:57:14;5.80;;;2.30;;
79139;SDS011;68546;59.142;37.948;2023-04-25T02:59:40;6.37;;;2.70;;
79139;SDS011;68546;59.142;37.948;2023-04-25T03:02:06;7.90;;;2.70;;
79139;SDS011;68546;59.142;37.948;2023-04-25T03:04:33;7.03;;;3.45;;
79139;SDS011;68546;59.142;37.948;2023-04-25T03:06:59;11.15;;;3.97;;
79139;SDS011;68546;59.142;37.948;2023-04-25T03:09:27;8.85;;;3.35;;
79139;SDS011;68546;59.142;37.948;2023-04-25T03:11:53;6.27;;;2.90;;
79139;SDS011;68546;59.142;37.948;2023-04-25T03:14:20;7.43;;;2.75;;
79139;SDS011;68546;59.142;37.948;2023-04-25T03:16:46;6.75;;;3.13;;
79139;SDS011;68546;59.142;37.948;2023-04-25T03:19:13;8.35;;;2.85;;
79139;SDS011;68546;59.142;37.948;2023-04-25T03:21:41;8.27;;;3.47;;
79139;SDS011;68546;59.142;37.948;2023-04-25T03:24:08;7.43;;;2.90;;
79139;SDS011;68546;59.142;37.948;2023-04-25T03:26:34;12.63;;;2.78;;
79139;SDS011;68546;59.142;37.948;2023-04-25T03:29:01;7.00;;;2.60;;
79139;SDS011;68546;59.142;37.948;2023-04-25T03:31:27;6.18;;;2.83;;
79139;SDS011;68546;59.142;37.948;2023-04-25T03:33:54;7.68;;;3.28;;
79139;SDS011;68546;59.142;37.948;2023-04-25T03:36:22;9.67;;;3.30;;
79139;SDS011;68546;59.142;37.948;2023-04-25T03:38:49;7.97;;;2.92;;
79139;SDS011;68546;59.142;37.948;2023-04-25T03:41:17;8.65;;;2.83;;
79139;SDS011;68546;59.142;37.948;2023-04-25T03:43:47;8.23;;;3.08;;
79139;SDS011;68546;59.142;37.948;2023-04-25T03:46:15;15.25;;;3.38;;
79139;SDS011;68546;59.142;37.948;2023-04-25T03:48:42;8.07;;;3.13;;
79139;SDS011;68546;59.142;37.948;2023-04-25T03:51:11;6.88;;;2.65;;
79139;SDS011;68546;59.142;37.948;2023-04-25T03:53:43;8.50;;;3.35;;
79139;SDS011;68546;59.142;37.948;2023-04-25T03:56:41;8.05;;;2.90;;
79139;SDS011;68546;59.142;37.948;2023-04-25T03:59:17;9.27;;;3.20;;
79139;SDS011;68546;59.142;37.948;2023-04-25T04:01:44;8.60;;;3.10;;
79139;SDS011;68546;59.142;37.948;2023-04-25T04:04:11;7.18;;;3.00;;
79139;SDS011;68546;59.142;37.948;2023-04-25T04:06:38;8.40;;;3.08;;
79139;SDS011;68546;59.142;37.948;2023-04-25T04:09:13;8.05;;;3.35;;
79139;SDS011;68546;59.142;37.948;2023-04-25T04:11:44;13.07;;;3.58;;
79139;SDS011;68546;59.142;37.948;2023-04-25T04:14:12;11.80;;;4.03;;
79139;SDS011;68546;59.142;37.948;2023-04-25T04:16:43;11.80;;;3.58;;
79139;SDS011;68546;59.142;37.948;2023-04-25T04:19:11;16.05;;;3.97;;
79139;SDS011;68546;59.142;37.948;2023-04-25T04:21:40;16.02;;;3.72;;
79139;SDS011;68546;59.142;37.948;2023-04-25T04:24:07;7.78;;;3.20;;
79139;SDS011;68546;59.142;37.948;2023-04-25T04:26:50;11.03;;;3.60;;
79139;SDS011;68546;59.142;37.948;2023-04-25T04:29:38;12.32;;;3.55;;
79139;SDS011;68546;59.142;37.948;2023-04-25T04:32:26;8.75;;;3.50;;
79139;SDS011;68546;59.142;37.948;2023-04-25T04:34:55;7.50;;;3.47;;
79139;SDS011;68546;59.142;37.948;2023-04-25T04:37:23;12.63;;;3.67;;
79139;SDS011;68546;59.142;37.948;2023-04-25T04:39:50;19.90;;;3.90;;
79139;SDS011;68546;59.142;37.948;2023-04-25T04:42:35;11.02;;;3.03;;
79139;SDS011;68546;59.142;37.948;2023-04-25T04:45:33;13.95;;;3.60;;
79139;SDS011;68546;59.142;37.948;2023-04-25T04:48:19;16.55;;;3.53;;
79139;SDS011;68546;59.142;37.948;2023-04-25T04:51:16;10.57;;;3.72;;
79139;SDS011;68546;59.142;37.948;2023-04-25T04:54:10;10.77;;;3.13;;
79139;SDS011;68546;59.142;37.948;2023-04-25T04:56:59;10.25;;;3.67;;
79139;SDS011;68546;59.142;37.948;2023-04-25T04:59:45;10.27;;;3.67;;
79139;SDS011;68546;59.142;37.948;2023-04-25T05:02:30;10.82;;;3.20;;
79139;SDS011;68546;59.142;37.948;2023-04-25T05:05:15;7.57;;;3.10;;
79139;SDS011;68546;59.142;37.948;2023-04-25T05:08:04;11.07;;;3.60;;
79139;SDS011;68546;59.142;37.948;2023-04-25T05:10:50;9.00;;;3.42;;
79139;SDS011;68546;59.142;37.948;2023-04-25T05:13:33;11.45;;;3.97;;
79139;SDS011;68546;59.142;37.948;2023-04-25T05:16:12;12.15;;;4.82;;
79139;SDS011;68546;59.142;37.948;2023-04-25T05:18:52;12.10;;;3.40;;
79139;SDS011;68546;59.142;37.948;2023-04-25T05:21:41;12.40;;;3.80;;
79139;SDS011;68546;59.142;37.948;2023-04-25T05:24:29;7.70;;;3.20;;
79139;SDS011;68546;59.142;37.948;2023-04-25T05:27:25;13.30;;;3.63;;
79139;SDS011;68546;59.142;37.948;2023-04-25T05:30:00;11.27;;;3.80;;
79139;SDS011;68546;59.142;37.948;2023-04-25T05:32:35;14.48;;;5.43;;
79139;SDS011;68546;59.142;37.948;2023-04-25T05:35:02;11.60;;;5.30;;
79139;SDS011;68546;59.142;37.948;2023-04-25T05:37:35;15.15;;;5.13;;
79139;SDS011;68546;59.142;37.948;2023-04-25T05:40:09;20.45;;;5.55;;
79139;SDS011;68546;59.142;37.948;2023-04-25T05:42:42;14.23;;;4.47;;
79139;SDS011;68546;59.142;37.948;2023-04-25T05:45:37;12.55;;;4.07;;
79139;SDS011;68546;59.142;37.948;2023-04-25T05:48:03;13.37;;;4.03;;
79139;SDS011;68546;59.142;37.948;2023-04-25T05:51:02;12.27;;;4.05;;
79139;SDS011;68546;59.142;37.948;2023-04-25T05:53:49;16.73;;;4.40;;
79139;SDS011;68546;59.142;37.948;2023-04-25T05:56:15;12.32;;;4.05;;
79139;SDS011;68546;59.142;37.948;2023-04-25T05:58:42;10.98;;;4.15;;
79139;SDS011;68546;59.142;37.948;2023-04-25T06:01:11;12.30;;;4.13;;
79139;SDS011;68546;59.142;37.948;2023-04-25T06:03:38;24.17;;;4.93;;
79139;SDS011;68546;59.142;37.948;2023-04-25T06:06:05;12.40;;;3.92;;
79139;SDS011;68546;59.142;37.948;2023-04-25T06:08:31;12.30;;;3.92;;
79139;SDS011;68546;59.142;37.948;2023-04-25T06:10:58;12.70;;;4.45;;
79139;SDS011;68546;59.142;37.948;2023-04-25T06:13:24;13.37;;;5.70;;
79139;SDS011;68546;59.142;37.948;2023-04-25T06:15:52;11.20;;;4.03;;
79139;SDS011;68546;59.142;37.948;2023-04-25T06:18:18;14.07;;;5.50;;
79139;SDS011;68546;59.142;37.948;2023-04-25T06:20:45;9.57;;;4.47;;
79139;SDS011;68546;59.142;37.948;2023-04-25T06:23:12;11.82;;;4.30;;
79139;SDS011;68546;59.142;37.948;2023-04-25T06:26:04;14.67;;;5.43;;
79139;SDS011;68546;59.142;37.948;2023-04-25T06:28:32;11.43;;;4.53;;
79139;SDS011;68546;59.142;37.948;2023-04-25T06:30:59;11.10;;;4.10;;
79139;SDS011;68546;59.142;37.948;2023-04-25T06:33:26;16.58;;;4.03;;
79139;SDS011;68546;59.142;37.948;2023-04-25T06:35:56;12.75;;;4.60;;
79139;SDS011;68546;59.142;37.948;2023-04-25T06:38:25;13.83;;;6.43;;
79139;SDS011;68546;59.142;37.948;2023-04-25T06:40:54;15.98;;;4.80;;
79139;SDS011;68546;59.142;37.948;2023-04-25T06:43:21;11.10;;;4.45;;
79139;SDS011;68546;59.142;37.948;2023-04-25T06:45:47;12.27;;;4.50;;
79139;SDS011;68546;59.142;37.948;2023-04-25T06:48:13;12.35;;;4.13;;
79139;SDS011;68546;59.142;37.948;2023-04-25T06:50:40;12.90;;;4.63;;
79139;SDS011;68546;59.142;37.948;2023-04-25T06:53:06;12.10;;;4.32;;
79139;SDS011;68546;59.142;37.948;2023-04-25T06:55:35;11.20;;;4.40;;
79139;SDS011;68546;59.142;37.948;2023-04-25T06:58:31;14.00;;;3.78;;
79139;SDS011;68546;59.142;37.948;2023-04-25T07:01:20;9.18;;;3.97;;
79139;SDS011;68546;59.142;37.948;2023-04-25T07:03:47;14.80;;;4.80;;
79139;SDS011;68546;59.142;37.948;2023-04-25T07:06:17;10.65;;;4.40;;
79139;SDS011;68546;59.142;37.948;2023-04-25T07:08:44;10.45;;;4.03;;
79139;SDS011;68546;59.142;37.948;2023-04-25T07:11:12;14.60;;;4.05;;
79139;SDS011;68546;59.142;37.948;2023-04-25T07:13:39;11.63;;;4.53;;
79139;SDS011;68546;59.142;37.948;2023-04-25T07:16:07;10.17;;;3.80;;
79139;SDS011;68546;59.142;37.948;2023-04-25T07:18:36;11.60;;;4.13;;
79139;SDS011;68546;59.142;37.948;2023-04-25T07:21:03;8.75;;;4.07;;
79139;SDS011;68546;59.142;37.948;2023-04-25T07:23:31;12.48;;;5.18;;
79139;SDS011;68546;59.142;37.948;2023-04-25T07:26:01;8.73;;;4.03;;
79139;SDS011;68546;59.142;37.948;2023-04-25T07:28:29;12.57;;;4.40;;
79139;SDS011;68546;59.142;37.948;2023-04-25T07:30:55;12.60;;;4.50;;
79139;SDS011;68546;59.142;37.948;2023-04-25T07:33:25;10.73;;;4.88;;
79139;SDS011;68546;59.142;37.948;2023-04-25T07:35:52;11.15;;;4.55;;
79139;SDS011;68546;59.142;37.948;2023-04-25T07:38:20;10.90;;;4.28;;
79139;SDS011;68546;59.142;37.948;2023-04-25T07:40:47;13.53;;;4.20;;
79139;SDS011;68546;59.142;37.948;2023-04-25T07:43:17;9.05;;;3.90;;
79139;SDS011;68546;59.142;37.948;2023-04-25T07:45:57;9.63;;;4.50;;
79139;SDS011;68546;59.142;37.948;2023-04-25T07:48:26;9.55;;;4.47;;
79139;SDS011;68546;59.142;37.948;2023-04-25T07:50:53;13.65;;;4.97;;
79139;SDS011;68546;59.142;37.948;2023-04-25T07:53:20;10.37;;;4.70;;
79139;SDS011;68546;59.142;37.948;2023-04-25T07:55:55;12.25;;;4.22;;
79139;SDS011;68546;59.142;37.948;2023-04-25T07:58:22;11.82;;;4.97;;
79139;SDS011;68546;59.142;37.948;2023-04-25T08:00:53;9.85;;;4.22;;
79139;SDS011;68546;59.142;37.948;2023-04-25T08:03:46;8.15;;;4.60;;
79139;SDS011;68546;59.142;37.948;2023-04-25T08:06:20;10.43;;;4.80;;
79139;SDS011;68546;59.142;37.948;2023-04-25T08:09:02;9.27;;;3.97;;
79139;SDS011;68546;59.142;37.948;2023-04-25T08:11:38;10.35;;;4.63;;
79139;SDS011;68546;59.142;37.948;2023-04-25T08:14:06;10.55;;;4.80;;
79139;SDS011;68546;59.142;37.948;2023-04-25T08:16:34;8.90;;;4.28;;
79139;SDS011;68546;59.142;37.948;2023-04-25T08:19:02;9.67;;;4.40;;
79139;SDS011;68546;59.142;37.948;2023-04-25T08:21:31;10.60;;;4.82;;
79139;SDS011;68546;59.142;37.948;2023-04-25T08:24:03;13.13;;;4.47;;
79139;SDS011;68546;59.142;37.948;2023-04-25T08:26:34;8.45;;;4.40;;
79139;SDS011;68546;59.142;37.948;2023-04-25T08:29:03;9.38;;;4.47;;
79139;SDS011;68546;59.142;37.948;2023-04-25T08:31:32;12.00;;;5.00;;
79139;SDS011;68546;59.142;37.948;2023-04-25T08:34:02;9.90;;;4.45;;
79139;SDS011;68546;59.142;37.948;2023-04-25T08:36:55;9.75;;;5.10;;
79139;SDS011;68546;59.142;37.948;2023-04-25T08:39:45;16.60;;;5.05;;
79139;SDS011;68546;59.142;37.948;2023-04-25T08:42:19;9.68;;;4.65;;
79139;SDS011;68546;59.142;37.948;2023-04-25T08:44:49;9.33;;;4.27;;
79139;SDS011;68546;59.142;37.948;2023-04-25T08:47:21;9.70;;;4.32;;
79139;SDS011;68546;59.142;37.948;2023-04-25T08:49:53;9.55;;;4.30;;
79139;SDS011;68546;59.142;37.948;2023-04-25T08:52:22;12.27;;;4.75;;
79139;SDS011;68546;59.142;37.948;2023-04-25T08:54:51;8.35;;;4.20;;
79139;SDS011;68546;59.142;37.948;2023-04-25T08:57:20;7.90;;;4.03;;
79139;SDS011;68546;59.142;37.948;2023-04-25T08:59:48;8.40;;;4.28;;
79139;SDS011;68546;59.142;37.948;2023-04-25T09:02:15;12.50;;;4.00;;
79139;SDS011;68546;59.142;37.948;2023-04-25T09:04:47;6.78;;;3.92;;
79139;SDS011;68546;59.142;37.948;2023-04-25T09:07:14;13.00;;;4.20;;
79139;SDS011;68546;59.142;37.948;2023-04-25T09:09:44;7.67;;;4.27;;
79139;SDS011;68546;59.142;37.948;2023-04-25T09:12:16;9.77;;;4.13;;
79139;SDS011;68546;59.142;37.948;2023-04-25T09:15:05;8.63;;;3.97;;
79139;SDS011;68546;59.142;37.948;2023-04-25T09:18:06;9.80;;;4.40;;
79139;SDS011;68546;59.142;37.948;2023-04-25T09:20:41;8.80;;;4.28;;
79139;SDS011;68546;59.142;37.948;2023-04-25T09:23:11;9.67;;;4.03;;
79139;SDS011;68546;59.142;37.948;2023-04-25T09:25:38;11.75;;;4.43;;
79139;SDS011;68546;59.142;37.948;2023-04-25T09:28:10;7.55;;;3.88;;
79139;SDS011;68546;59.142;37.948;2023-04-25T09:30:37;9.15;;;4.28;;
79139;SDS011;68546;59.142;37.948;2023-04-25T09:33:10;14.52;;;4.35;;
79139;SDS011;68546;59.142;37.948;2023-04-25T09:35:42;7.63;;;4.03;;
79139;SDS011;68546;59.142;37.948;2023-04-25T09:38:15;10.32;;;3.80;;
79139;SDS011;68546;59.142;37.948;2023-04-25T09:40:54;9.32;;;4.55;;
79139;SDS011;68546;59.142;37.948;2023-04-25T09:43:56;10.20;;;4.35;;
79139;SDS011;68546;59.142;37.948;2023-04-25T09:46:33;11.00;;;4.45;;
79139;SDS011;68546;59.142;37.948;2023-04-25T09:49:06;23.08;;;5.78;;
79139;SDS011;68546;59.142;37.948;2023-04-25T09:51:54;15.02;;;5.30;;
79139;SDS011;68546;59.142;37.948;2023-04-25T09:54:26;11.73;;;5.50;;
79139;SDS011;68546;59.142;37.948;2023-04-25T09:57:10;9.32;;;4.30;;
79139;SDS011;68546;59.142;37.948;2023-04-25T09:59:40;11.27;;;4.57;;
79139;SDS011;68546;59.142;37.948;2023-04-25T10:02:10;11.07;;;4.73;;
79139;SDS011;68546;59.142;37.948;2023-04-25T10:04:40;8.65;;;4.68;;
79139;SDS011;68546;59.142;37.948;2023-04-25T10:07:30;9.27;;;4.22;;
79139;SDS011;68546;59.142;37.948;2023-04-25T10:10:02;10.45;;;4.50;;
79139;SDS011;68546;59.142;37.948;2023-04-25T10:12:33;12.07;;;4.57;;
79139;SDS011;68546;59.142;37.948;2023-04-25T10:15:00;13.90;;;4.63;;
79139;SDS011;68546;59.142;37.948;2023-04-25T10:17:28;22.52;;;4.63;;
79139;SDS011;68546;59.142;37.948;2023-04-25T10:19:55;12.27;;;4.43;;
79139;SDS011;68546;59.142;37.948;2023-04-25T10:22:34;9.65;;;4.50;;
79139;SDS011;68546;59.142;37.948;2023-04-25T10:25:05;7.10;;;4.00;;
79139;SDS011;68546;59.142;37.948;2023-04-25T10:27:36;12.32;;;3.95;;
79139;SDS011;68546;59.142;37.948;2023-04-25T10:30:05;10.43;;;4.25;;
79139;SDS011;68546;59.142;37.948;2023-04-25T10:32:42;14.20;;;4.57;;
79139;SDS011;68546;59.142;37.948;2023-04-25T10:35:11;20.63;;;4.95;;
79139;SDS011;68546;59.142;37.948;2023-04-25T10:40:45;11.43;;;4.55;;
79139;SDS011;68546;59.142;37.948;2023-04-25T10:43:42;10.13;;;4.88;;
79139;SDS011;68546;59.142;37.948;2023-04-25T10:48:46;10.68;;;4.43;;
79139;SDS011;68546;59.142;37.948;2023-04-25T10:51:22;8.38;;;4.63;;
79139;SDS011;68546;59.142;37.948;2023-04-25T10:59:04;8.40;;;4.28;;
79139;SDS011;68546;59.142;37.948;2023-04-25T11:01:36;11.00;;;4.22;;
79139;SDS011;68546;59.142;37.948;2023-04-25T11:04:23;12.93;;;5.45;;
79139;SDS011;68546;59.142;37.948;2023-04-25T11:09:49;11.57;;;5.40;;
79139;SDS011;68546;59.142;37.948;2023-04-25T11:12:17;9.07;;;4.78;;
79139;SDS011;68546;59.142;37.948;2023-04-25T11:14:43;8.95;;;4.03;;
79139;SDS011;68546;59.142;37.948;2023-04-25T11:17:10;8.82;;;4.90;;
79139;SDS011;68546;59.142;37.948;2023-04-25T11:19:36;9.30;;;4.30;;
79139;SDS011;68546;59.142;37.948;2023-04-25T11:22:03;10.25;;;3.97;;
79139;SDS011;68546;59.142;37.948;2023-04-25T11:24:32;9.68;;;4.30;;
79139;SDS011;68546;59.142;37.948;2023-04-25T11:27:01;23.40;;;4.57;;
79139;SDS011;68546;59.142;37.948;2023-04-25T11:29:31;11.00;;;4.18;;
79139;SDS011;68546;59.142;37.948;2023-04-25T11:32:00;12.37;;;3.83;;
79139;SDS011;68546;59.142;37.948;2023-04-25T11:34:28;9.88;;;4.15;;
79139;SDS011;68546;59.142;37.948;2023-04-25T11:36:59;10.95;;;3.85;;
79139;SDS011;68546;59.142;37.948;2023-04-25T11:39:26;11.20;;;4.10;;
79139;SDS011;68546;59.142;37.948;2023-04-25T11:41:53;8.23;;;4.00;;
79139;SDS011;68546;59.142;37.948;2023-04-25T11:44:21;10.10;;;4.27;;
79139;SDS011;68546;59.142;37.948;2023-04-25T11:46:48;13.32;;;4.20;;
79139;SDS011;68546;59.142;37.948;2023-04-25T11:49:15;8.38;;;4.13;;
79139;SDS011;68546;59.142;37.948;2023-04-25T11:51:45;11.07;;;4.13;;
79139;SDS011;68546;59.142;37.948;2023-04-25T11:54:13;39.83;;;5.65;;
79139;SDS011;68546;59.142;37.948;2023-04-25T11:56:44;21.67;;;4.82;;
79139;SDS011;68546;59.142;37.948;2023-04-25T11:59:11;10.40;;;4.30;;
79139;SDS011;68546;59.142;37.948;2023-04-25T12:01:46;19.50;;;8.48;;
79139;SDS011;68546;59.142;37.948;2023-04-25T12:04:19;13.43;;;5.93;;
79139;SDS011;68546;59.142;37.948;2023-04-25T12:06:48;8.95;;;4.15;;
79139;SDS011;68546;59.142;37.948;2023-04-25T12:09:18;9.20;;;4.38;;
79139;SDS011;68546;59.142;37.948;2023-04-25T12:11:59;12.07;;;4.00;;
79139;SDS011;68546;59.142;37.948;2023-04-25T12:14:31;12.30;;;4.18;;
79139;SDS011;68546;59.142;37.948;2023-04-25T12:17:01;8.05;;;3.45;;
79139;SDS011;68546;59.142;37.948;2023-04-25T12:19:36;10.40;;;3.60;;
79139;SDS011;68546;59.142;37.948;2023-04-25T12:22:22;8.52;;;3.80;;
79139;SDS011;68546;59.142;37.948;2023-04-25T12:24:52;7.78;;;3.65;;
79139;SDS011;68546;59.142;37.948;2023-04-25T12:27:20;11.57;;;3.88;;
79139;SDS011;68546;59.142;37.948;2023-04-25T12:29:53;9.10;;;4.07;;
79139;SDS011;68546;59.142;37.948;2023-04-25T12:32:21;8.98;;;3.42;;
79139;SDS011;68546;59.142;37.948;2023-04-25T12:34:47;8.23;;;3.97;;
79139;SDS011;68546;59.142;37.948;2023-04-25T12:37:14;7.07;;;3.35;;
79139;SDS011;68546;59.142;37.948;2023-04-25T12:39:41;8.55;;;3.60;;
79139;SDS011;68546;59.142;37.948;2023-04-25T12:42:07;10.05;;;3.70;;
79139;SDS011;68546;59.142;37.948;2023-04-25T12:44:37;9.57;;;3.58;;
79139;SDS011;68546;59.142;37.948;2023-04-25T12:47:04;7.47;;;3.65;;
79139;SDS011;68546;59.142;37.948;2023-04-25T12:49:31;9.57;;;3.75;;
79139;SDS011;68546;59.142;37.948;2023-04-25T12:51:59;6.88;;;3.67;;
79139;SDS011;68546;59.142;37.948;2023-04-25T12:54:26;8.98;;;3.60;;
79139;SDS011;68546;59.142;37.948;2023-04-25T12:56:54;7.53;;;3.58;;
79139;SDS011;68546;59.142;37.948;2023-04-25T12:59:21;8.07;;;3.70;;
79139;SDS011;68546;59.142;37.948;2023-04-25T13:01:48;9.07;;;4.20;;
79139;SDS011;68546;59.142;37.948;2023-04-25T13:04:15;14.93;;;3.90;;
79139;SDS011;68546;59.142;37.948;2023-04-25T13:06:42;7.18;;;3.65;;
79139;SDS011;68546;59.142;37.948;2023-04-25T13:09:10;8.13;;;3.70;;
79139;SDS011;68546;59.142;37.948;2023-04-25T13:11:40;9.98;;;4.32;;
79139;SDS011;68546;59.142;37.948;2023-04-25T13:14:08;8.50;;;3.70;;
79139;SDS011;68546;59.142;37.948;2023-04-25T13:16:35;7.47;;;3.60;;
79139;SDS011;68546;59.142;37.948;2023-04-25T13:19:02;8.90;;;3.63;;
79139;SDS011;68546;59.142;37.948;2023-04-25T13:21:31;9.57;;;3.53;;
79139;SDS011;68546;59.142;37.948;2023-04-25T13:23:58;9.80;;;3.50;;
79139;SDS011;68546;59.142;37.948;2023-04-25T13:26:24;9.98;;;3.10;;
79139;SDS011;68546;59.142;37.948;2023-04-25T13:28:51;8.77;;;3.75;;
79139;SDS011;68546;59.142;37.948;2023-04-25T13:31:19;6.82;;;3.08;;
79139;SDS011;68546;59.142;37.948;2023-04-25T13:33:48;9.85;;;3.72;;
79139;SDS011;68546;59.142;37.948;2023-04-25T13:36:16;6.65;;;3.53;;
79139;SDS011;68546;59.142;37.948;2023-04-25T13:38:42;6.53;;;3.17;;
79139;SDS011;68546;59.142;37.948;2023-04-25T13:41:12;10.82;;;3.70;;
79139;SDS011;68546;59.142;37.948;2023-04-25T13:43:44;9.00;;;3.47;;
79139;SDS011;68546;59.142;37.948;2023-04-25T13:46:12;7.85;;;3.47;;
79139;SDS011;68546;59.142;37.948;2023-04-25T13:48:41;8.77;;;3.47;;
79139;SDS011;68546;59.142;37.948;2023-04-25T13:51:13;7.88;;;3.50;;
79139;SDS011;68546;59.142;37.948;2023-04-25T13:53:39;10.45;;;4.00;;
79139;SDS011;68546;59.142;37.948;2023-04-25T13:56:06;7.45;;;3.50;;
79139;SDS011;68546;59.142;37.948;2023-04-25T13:58:32;7.88;;;3.20;;
79139;SDS011;68546;59.142;37.948;2023-04-25T14:00:58;11.38;;;3.90;;
79139;SDS011;68546;59.142;37.948;2023-04-25T14:03:27;7.88;;;3.25;;
79139;SDS011;68546;59.142;37.948;2023-04-25T14:05:53;8.15;;;3.70;;
79139;SDS011;68546;59.142;37.948;2023-04-25T14:08:23;7.28;;;3.28;;
79139;SDS011;68546;59.142;37.948;2023-04-25T14:10:51;8.52;;;3.22;;
79139;SDS011;68546;59.142;37.948;2023-04-25T14:13:18;8.57;;;4.20;;
79139;SDS011;68546;59.142;37.948;2023-04-25T14:15:44;8.38;;;3.67;;
79139;SDS011;68546;59.142;37.948;2023-04-25T14:18:12;8.45;;;3.10;;
79139;SDS011;68546;59.142;37.948;2023-04-25T14:20:39;7.75;;;3.10;;
79139;SDS011;68546;59.142;37.948;2023-04-25T14:23:06;10.00;;;3.08;;
79139;SDS011;68546;59.142;37.948;2023-04-25T14:25:36;7.73;;;3.20;;
79139;SDS011;68546;59.142;37.948;2023-04-25T14:28:04;8.40;;;3.13;;
79139;SDS011;68546;59.142;37.948;2023-04-25T14:30:30;5.75;;;2.80;;
79139;SDS011;68546;59.142;37.948;2023-04-25T14:32:59;8.82;;;3.33;;
79139;SDS011;68546;59.142;37.948;2023-04-25T14:35:27;7.60;;;2.95;;
79139;SDS011;68546;59.142;37.948;2023-04-25T14:37:53;11.27;;;2.93;;
79139;SDS011;68546;59.142;37.948;2023-04-25T14:40:20;8.90;;;2.90;;
79139;SDS011;68546;59.142;37.948;2023-04-25T14:42:48;8.73;;;3.03;;
79139;SDS011;68546;59.142;37.948;2023-04-25T14:45:16;5.60;;;2.60;;
79139;SDS011;68546;59.142;37.948;2023-04-25T14:47:43;6.05;;;2.42;;
79139;SDS011;68546;59.142;37.948;2023-04-25T14:50:09;6.93;;;2.50;;
79139;SDS011;68546;59.142;37.948;2023-04-25T14:52:36;6.00;;;2.83;;
79139;SDS011;68546;59.142;37.948;2023-04-25T14:55:03;7.05;;;2.90;;
79139;SDS011;68546;59.142;37.948;2023-04-25T14:57:33;5.70;;;2.67;;
79139;SDS011;68546;59.142;37.948;2023-04-25T15:00:00;7.28;;;2.75;;
79139;SDS011;68546;59.142;37.948;2023-04-25T15:02:27;5.83;;;2.73;;
79139;SDS011;68546;59.142;37.948;2023-04-25T15:04:54;6.32;;;2.90;;